createdAt,value
2018-09-03T00:00:57.669Z,90.00
2018-09-03T00:03:25.918Z,90.40
2018-09-03T00:05:54.155Z,90.40
2018-09-03T00:08:22.433Z,90.10
2018-09-03T00:10:50.673Z,90.00
2018-09-03T00:13:18.893Z,89.80
2018-09-03T00:15:47.120Z,89.40
2018-09-03T00:18:15.484Z,89.10
2018-09-03T00:20:44.034Z,89.80
2018-09-03T00:23:12.310Z,89.80
2018-09-03T00:25:40.506Z,90.30
2018-09-03T00:28:08.706Z,90.40
2018-09-03T00:30:36.938Z,90.30
2018-09-03T00:33:10.479Z,90.10
2018-09-03T00:35:44.269Z,89.60
2018-09-03T00:38:17.687Z,89.00
2018-09-03T00:40:51.261Z,88.50
2018-09-03T00:43:24.749Z,87.70
2018-09-03T00:45:58.417Z,86.80
2018-09-03T00:48:26.659Z,86.90
2018-09-03T00:50:54.889Z,86.90
2018-09-03T00:53:23.153Z,86.90
2018-09-03T00:55:51.438Z,86.30
2018-09-03T00:58:19.645Z,86.20
2018-09-03T01:00:47.830Z,86.00
2018-09-03T01:03:16.029Z,85.90
2018-09-03T01:05:44.317Z,86.00
2018-09-03T01:08:12.532Z,85.90
2018-09-03T01:10:40.804Z,85.90
2018-09-03T01:13:09.049Z,86.20
2018-09-03T01:15:37.335Z,85.90
2018-09-03T01:18:05.562Z,85.20
2018-09-03T01:20:33.841Z,85.50
2018-09-03T01:23:02.079Z,85.70
2018-09-03T01:25:30.289Z,85.40
2018-09-03T01:27:58.677Z,85.90
2018-09-03T01:30:26.951Z,85.90
2018-09-03T01:32:55.222Z,86.10
2018-09-03T01:35:23.441Z,86.20
2018-09-03T01:37:51.669Z,85.80
2018-09-03T01:40:19.976Z,85.50
2018-09-03T01:42:48.225Z,85.60
2018-09-03T01:45:16.445Z,85.70
2018-09-03T01:47:44.670Z,85.70
2018-09-03T01:50:12.911Z,85.70
2018-09-03T01:52:41.126Z,85.30
2018-09-03T01:55:09.362Z,84.70
2018-09-03T01:57:37.601Z,85.70
2018-09-03T02:00:05.932Z,86.70
2018-09-03T02:02:34.155Z,87.10
2018-09-03T02:05:02.441Z,88.50
2018-09-03T02:07:30.711Z,89.00
2018-09-03T02:09:58.924Z,88.80
2018-09-03T02:12:27.157Z,90.10
2018-09-03T02:14:55.513Z,90.00
2018-09-03T02:17:23.777Z,90.00
2018-09-03T02:19:52.396Z,89.80
2018-09-03T02:22:20.592Z,89.50
2018-09-03T02:24:48.846Z,89.20
2018-09-03T02:27:17.125Z,88.80
2018-09-03T02:29:45.375Z,88.50
2018-09-03T02:32:13.618Z,88.90
2018-09-03T02:34:41.831Z,90.00
2018-09-03T02:37:10.157Z,89.70
2018-09-03T02:39:38.385Z,90.00
2018-09-03T02:42:06.677Z,90.10
2018-09-03T02:44:34.911Z,89.40
2018-09-03T02:47:03.188Z,89.80
2018-09-03T02:49:31.431Z,89.40
2018-09-03T02:51:59.665Z,89.50
2018-09-03T02:54:27.865Z,89.20
2018-09-03T02:56:56.164Z,88.60
2018-09-03T02:59:24.469Z,89.00
2018-09-03T03:01:52.662Z,88.60
2018-09-03T03:04:21.072Z,87.80
2018-09-03T03:06:49.270Z,87.30
2018-09-03T03:09:17.473Z,87.30
2018-09-03T03:11:45.719Z,86.80
2018-09-03T03:14:14.101Z,86.70
2018-09-03T03:16:42.332Z,86.60
2018-09-03T03:19:10.547Z,86.50
2018-09-03T03:21:38.773Z,86.30
2018-09-03T03:24:06.961Z,85.50
2018-09-03T03:26:35.209Z,85.20
2018-09-03T03:29:03.424Z,84.90
2018-09-03T03:31:31.711Z,84.70
2018-09-03T03:33:59.874Z,84.40
2018-09-03T03:36:28.110Z,84.90
2018-09-03T03:38:56.336Z,84.80
2018-09-03T03:41:24.602Z,84.90
2018-09-03T03:43:52.821Z,84.70
2018-09-03T03:46:21.085Z,84.90
2018-09-03T03:48:49.514Z,85.30
2018-09-03T03:51:17.878Z,85.00
2018-09-03T03:53:46.209Z,84.90
2018-09-03T03:56:14.618Z,84.70
2018-09-03T03:58:42.932Z,84.50
2018-09-03T04:01:11.169Z,84.60
2018-09-03T04:03:39.398Z,84.50
2018-09-03T04:06:07.570Z,84.40
2018-09-03T04:08:35.802Z,84.50
2018-09-03T04:11:04.022Z,84.60
2018-09-03T04:13:32.410Z,84.50
2018-09-03T04:16:00.619Z,84.50
2018-09-03T04:18:29.083Z,84.10
2018-09-03T04:20:57.308Z,84.40
2018-09-03T04:23:25.691Z,84.20
2018-09-03T04:25:53.697Z,84.10
2018-09-03T04:28:21.869Z,84.00
2018-09-03T04:30:50.070Z,83.70
2018-09-03T04:33:18.281Z,83.80
2018-09-03T04:35:46.523Z,83.90
2018-09-03T04:38:14.865Z,83.90
2018-09-03T04:40:43.221Z,83.70
2018-09-03T04:43:11.455Z,83.80
2018-09-03T04:45:39.730Z,83.90
2018-09-03T04:48:08.028Z,83.20
2018-09-03T04:50:36.318Z,82.90
2018-09-03T04:53:04.645Z,82.30
2018-09-03T04:55:32.930Z,82.30
2018-09-03T04:58:01.221Z,82.50
2018-09-03T05:00:29.508Z,82.30
2018-09-03T05:02:57.713Z,82.30
2018-09-03T05:05:25.970Z,82.60
2018-09-03T05:07:54.198Z,82.50
2018-09-03T05:10:22.516Z,82.20
2018-09-03T05:12:50.930Z,82.10
2018-09-03T05:15:19.300Z,81.70
2018-09-03T05:17:47.598Z,81.70
2018-09-03T05:20:16.054Z,81.60
2018-09-03T05:22:44.317Z,81.40
2018-09-03T05:25:12.815Z,81.60
2018-09-03T05:27:41.054Z,81.30
2018-09-03T05:30:09.366Z,81.50
2018-09-03T05:32:38.612Z,81.30
2018-09-03T05:35:06.902Z,81.40
2018-09-03T05:37:35.181Z,80.60
2018-09-03T05:40:03.439Z,80.70
2018-09-03T05:42:31.723Z,80.40
2018-09-03T05:45:00.014Z,80.50
2018-09-03T05:47:28.237Z,80.30
2018-09-03T05:49:59.569Z,79.90
2018-09-03T05:52:34.296Z,80.00
2018-09-03T05:55:02.501Z,79.60
2018-09-03T05:57:30.789Z,80.00
2018-09-03T05:59:59.074Z,80.00
2018-09-03T06:02:27.318Z,79.40
2018-09-03T06:04:55.650Z,79.40
2018-09-03T06:07:23.798Z,79.30
2018-09-03T06:09:52.078Z,78.50
2018-09-03T06:12:20.430Z,78.20
2018-09-03T06:14:48.689Z,78.80
2018-09-03T06:17:16.953Z,79.10
2018-09-03T06:19:45.201Z,79.10
2018-09-03T06:22:13.471Z,79.00
2018-09-03T06:24:41.636Z,78.80
2018-09-03T06:27:09.970Z,78.70
2018-09-03T06:29:38.233Z,76.80
2018-09-03T06:32:06.485Z,76.10
2018-09-03T06:34:34.745Z,75.70
2018-09-03T06:37:02.950Z,75.40
2018-09-03T06:39:31.230Z,75.20
2018-09-03T06:41:59.430Z,74.80
2018-09-03T06:44:27.734Z,74.40
2018-09-03T06:46:56.012Z,73.60
2018-09-03T06:49:24.270Z,73.90
2018-09-03T06:51:52.532Z,74.00
2018-09-03T06:54:20.771Z,73.30
2018-09-03T06:56:49.109Z,73.20
2018-09-03T06:59:17.287Z,72.70
2018-09-03T07:01:45.503Z,71.90
2018-09-03T07:04:13.791Z,71.10
2018-09-03T07:06:42.142Z,71.00
2018-09-03T07:09:10.653Z,68.70
2018-09-03T07:11:39.148Z,68.80
2018-09-03T07:14:07.453Z,66.70
2018-09-03T07:16:35.725Z,63.80
2018-09-03T07:19:03.995Z,63.50
2018-09-03T07:21:32.193Z,63.70
2018-09-03T07:24:00.442Z,62.70
2018-09-03T07:26:28.682Z,63.10
2018-09-03T07:28:57.018Z,61.10
2018-09-03T07:31:25.214Z,59.40
2018-09-03T07:33:53.470Z,59.00
2018-09-03T07:36:21.699Z,58.90
2018-09-03T07:38:49.946Z,59.30
2018-09-03T07:41:18.162Z,59.50
2018-09-03T07:43:46.428Z,59.70
2018-09-03T07:46:14.655Z,58.90
2018-09-03T07:48:42.986Z,59.00
2018-09-03T07:51:11.240Z,59.50
2018-09-03T07:53:39.434Z,59.90
2018-09-03T07:56:07.650Z,60.40
2018-09-03T07:58:35.854Z,61.10
2018-09-03T08:01:04.157Z,61.20
2018-09-03T08:03:32.329Z,61.70
2018-09-03T08:06:00.569Z,61.40
2018-09-03T08:08:28.778Z,61.40
2018-09-03T08:10:57.054Z,61.50
2018-09-03T08:13:30.673Z,60.40
2018-09-03T08:15:59.745Z,60.60
2018-09-03T08:18:28.013Z,60.70
2018-09-03T08:20:56.383Z,60.10
2018-09-03T08:23:24.621Z,60.40
2018-09-03T08:25:52.893Z,60.00
2018-09-03T08:28:21.129Z,59.90
2018-09-03T08:30:49.402Z,60.20
2018-09-03T08:33:17.699Z,59.90
2018-09-03T08:35:46.145Z,60.00
2018-09-03T08:38:14.388Z,60.30
2018-09-03T08:40:42.581Z,60.30
2018-09-03T08:43:10.777Z,61.20
2018-09-03T08:45:39.059Z,61.10
2018-09-03T08:48:07.353Z,61.50
2018-09-03T08:50:35.601Z,61.10
2018-09-03T08:53:03.856Z,61.20
2018-09-03T08:55:32.065Z,60.90
2018-09-03T08:58:00.290Z,59.40
2018-09-03T09:00:28.519Z,59.00
2018-09-03T09:02:56.826Z,59.40
2018-09-03T09:05:25.100Z,59.30
2018-09-03T09:07:53.428Z,60.10
2018-09-03T09:10:21.800Z,59.60
2018-09-03T09:12:50.082Z,59.80
2018-09-03T09:15:18.417Z,59.80
2018-09-03T09:17:46.658Z,59.00
2018-09-03T09:20:14.984Z,59.10
2018-09-03T09:22:43.627Z,58.90
2018-09-03T09:25:11.874Z,57.50
2018-09-03T09:27:40.082Z,58.70
2018-09-03T09:30:08.361Z,58.80
2018-09-03T09:32:36.599Z,58.70
2018-09-03T09:35:04.836Z,59.00
2018-09-03T09:37:33.048Z,57.40
2018-09-03T09:40:01.309Z,57.40
2018-09-03T09:42:29.569Z,56.10
2018-09-03T09:44:57.820Z,56.10
2018-09-03T09:47:26.057Z,56.10
2018-09-03T09:49:54.347Z,55.70
2018-09-03T09:52:22.665Z,55.50
2018-09-03T09:54:51.069Z,55.30
2018-09-03T09:57:19.310Z,54.90
2018-09-03T09:59:47.518Z,55.40
2018-09-03T10:02:15.760Z,56.40
2018-09-03T10:04:43.990Z,56.40
2018-09-03T10:07:12.307Z,55.80
2018-09-03T10:09:40.523Z,55.80
2018-09-03T10:12:08.758Z,56.40
2018-09-03T10:14:36.975Z,54.90
2018-09-03T10:17:05.177Z,54.70
2018-09-03T10:19:33.538Z,54.80
2018-09-03T10:22:01.862Z,54.80
2018-09-03T10:24:30.168Z,55.10
2018-09-03T10:26:58.385Z,55.20
2018-09-03T10:29:26.669Z,56.00
2018-09-03T10:31:55.091Z,56.10
2018-09-03T10:34:23.603Z,56.10
2018-09-03T10:36:51.831Z,55.20
2018-09-03T10:39:20.328Z,56.80
2018-09-03T10:41:48.593Z,56.40
2018-09-03T10:44:16.800Z,56.50
2018-09-03T10:46:46.524Z,56.60
2018-09-03T10:49:14.719Z,56.10
2018-09-03T10:51:43.004Z,55.90
2018-09-03T10:54:11.314Z,55.60
2018-09-03T10:56:39.636Z,55.50
2018-09-03T10:59:07.851Z,55.00
2018-09-03T11:01:36.142Z,54.70
2018-09-03T11:04:04.466Z,54.40
2018-09-03T11:06:32.946Z,54.20
2018-09-03T11:09:01.209Z,54.60
2018-09-03T11:11:29.792Z,53.70
2018-09-03T11:13:58.155Z,53.60
2018-09-03T11:16:26.358Z,53.30
2018-09-03T11:18:54.806Z,53.70
2018-09-03T11:21:23.206Z,54.10
2018-09-03T11:23:51.335Z,54.00
2018-09-03T11:26:19.570Z,53.80
2018-09-03T11:28:47.855Z,53.20
2018-09-03T11:31:16.069Z,53.70
2018-09-03T11:33:44.363Z,53.20
2018-09-03T11:36:12.659Z,52.70
2018-09-03T11:38:40.930Z,51.80
2018-09-03T11:41:09.156Z,52.30
2018-09-03T11:43:37.434Z,52.90
2018-09-03T11:46:05.741Z,52.90
2018-09-03T11:48:34.002Z,52.40
2018-09-03T11:51:02.277Z,51.50
2018-09-03T11:53:30.539Z,51.70
2018-09-03T11:55:58.750Z,51.30
2018-09-03T11:58:27.042Z,51.10
2018-09-03T12:00:58.368Z,50.80
2018-09-03T12:03:26.605Z,50.60
2018-09-03T12:05:54.871Z,50.50
2018-09-03T12:08:23.117Z,50.10
2018-09-03T12:10:51.597Z,50.30
2018-09-03T12:13:19.833Z,50.30
2018-09-03T12:15:53.242Z,49.40
2018-09-03T12:18:22.466Z,49.40
2018-09-03T12:20:50.814Z,49.00
2018-09-03T12:23:19.126Z,49.30
2018-09-03T12:25:47.427Z,49.00
2018-09-03T12:28:15.657Z,49.00
2018-09-03T12:30:43.960Z,48.90
2018-09-03T12:33:12.205Z,48.90
2018-09-03T12:35:40.409Z,48.70
2018-09-03T12:38:08.757Z,49.00
2018-09-03T12:40:36.937Z,48.70
2018-09-03T12:43:05.222Z,48.20
2018-09-03T12:45:38.857Z,47.90
2018-09-03T12:48:07.108Z,47.70
2018-09-03T12:50:35.378Z,47.30
2018-09-03T12:53:03.635Z,47.50
2018-09-03T12:55:31.848Z,47.90
2018-09-03T12:58:00.101Z,47.60
2018-09-03T13:00:28.360Z,47.30
2018-09-03T13:02:56.705Z,47.40
2018-09-03T13:05:24.914Z,47.60
2018-09-03T13:07:53.779Z,47.50
2018-09-03T13:10:22.014Z,47.00
2018-09-03T13:12:50.357Z,46.80
2018-09-03T13:15:18.601Z,47.40
2018-09-03T13:17:46.887Z,48.70
2018-09-03T13:20:15.217Z,49.20
2018-09-03T13:22:43.651Z,49.70
2018-09-03T13:25:11.907Z,50.00
2018-09-03T13:27:40.190Z,50.30
2018-09-03T13:30:09.389Z,50.90
2018-09-03T13:32:37.603Z,50.40
2018-09-03T13:35:06.053Z,50.50
2018-09-03T13:37:34.544Z,50.40
2018-09-03T13:40:02.800Z,49.80
2018-09-03T13:42:31.207Z,50.50
2018-09-03T13:44:59.344Z,49.60
2018-09-03T13:47:27.569Z,49.20
2018-09-03T13:49:55.904Z,49.00
2018-09-03T13:52:24.242Z,48.90
2018-09-03T13:54:53.533Z,49.00
2018-09-03T13:57:21.734Z,48.90
2018-09-03T13:59:49.981Z,48.60
2018-09-03T14:02:18.308Z,49.00
2018-09-03T14:04:46.700Z,49.30
2018-09-03T14:07:14.948Z,50.40
2018-09-03T14:09:43.226Z,50.30
2018-09-03T14:12:11.560Z,50.40
2018-09-03T14:14:39.867Z,50.40
2018-09-03T14:17:08.115Z,49.90
2018-09-03T14:19:36.530Z,49.60
2018-09-03T14:22:04.891Z,49.60
2018-09-03T14:24:33.125Z,49.90
2018-09-03T14:27:01.344Z,50.00
2018-09-03T14:29:29.635Z,49.50
2018-09-03T14:31:57.906Z,49.00
2018-09-03T14:34:26.193Z,49.30
2018-09-03T14:36:54.524Z,49.10
2018-09-03T14:39:22.801Z,49.90
2018-09-03T14:41:51.094Z,48.90
2018-09-03T14:44:19.389Z,49.20
2018-09-03T14:46:47.641Z,48.30
2018-09-03T14:49:15.921Z,48.60
2018-09-03T14:51:44.192Z,49.00
2018-09-03T14:54:12.462Z,48.80
2018-09-03T14:56:41.154Z,48.20
2018-09-03T14:59:09.506Z,48.80
2018-09-03T15:01:37.960Z,48.80
2018-09-03T15:04:06.257Z,49.20
2018-09-03T15:06:34.470Z,48.50
2018-09-03T15:09:02.751Z,48.80
2018-09-03T15:11:31.266Z,49.50
2018-09-03T15:14:02.025Z,49.40
2018-09-03T15:16:32.498Z,49.10
2018-09-03T15:19:02.544Z,48.10
2018-09-03T15:21:30.798Z,47.90
2018-09-03T15:23:59.020Z,47.50
2018-09-03T15:26:27.572Z,47.90
2018-09-03T15:28:55.800Z,48.50
2018-09-03T15:31:24.098Z,48.30
2018-09-03T15:33:52.281Z,48.90
2018-09-03T15:36:20.637Z,48.90
2018-09-03T15:38:48.883Z,48.90
2018-09-03T15:41:17.299Z,48.40
2018-09-03T15:43:45.697Z,48.40
2018-09-03T15:46:14.034Z,48.40
2018-09-03T15:48:42.363Z,48.80
2018-09-03T15:51:10.600Z,48.80
2018-09-03T15:53:39.034Z,48.30
2018-09-03T15:56:07.364Z,48.70
2018-09-03T15:58:35.585Z,48.60
2018-09-03T16:01:03.849Z,49.10
2018-09-03T16:03:32.121Z,49.10
2018-09-03T16:06:00.372Z,49.70
2018-09-03T16:08:28.630Z,50.10
2018-09-03T16:10:56.862Z,50.20
2018-09-03T16:13:25.104Z,50.60
2018-09-03T16:15:53.357Z,50.90
2018-09-03T16:18:21.619Z,51.30
2018-09-03T16:20:50.063Z,51.40
2018-09-03T16:23:18.336Z,51.50
2018-09-03T16:25:46.609Z,51.00
2018-09-03T16:28:14.960Z,50.70
2018-09-03T16:30:43.188Z,50.80
2018-09-03T16:33:17.768Z,51.00
2018-09-03T16:35:46.174Z,50.50
2018-09-03T16:38:14.694Z,50.60
2018-09-03T16:40:43.066Z,50.50
2018-09-03T16:43:11.332Z,51.00
2018-09-03T16:45:39.522Z,51.30
2018-09-03T16:48:07.851Z,51.10
2018-09-03T16:50:36.929Z,52.40
2018-09-03T16:53:05.157Z,52.30
2018-09-03T16:55:33.425Z,52.20
2018-09-03T16:58:01.949Z,52.80
2018-09-03T17:00:30.258Z,52.90
2018-09-03T17:02:58.477Z,53.10
2018-09-03T17:05:26.754Z,53.30
2018-09-03T17:07:55.148Z,53.80
2018-09-03T17:10:23.335Z,54.10
2018-09-03T17:12:51.622Z,54.40
2018-09-03T17:15:19.919Z,55.10
2018-09-03T17:17:48.338Z,55.60
2018-09-03T17:20:16.716Z,56.70
2018-09-03T17:22:44.947Z,57.30
2018-09-03T17:25:13.167Z,58.30
2018-09-03T17:27:41.570Z,58.70
2018-09-03T17:30:09.841Z,58.70
2018-09-03T17:32:38.084Z,58.90
2018-09-03T17:35:06.876Z,59.10
2018-09-03T17:37:35.109Z,59.40
2018-09-03T17:40:03.318Z,59.50
2018-09-03T17:42:31.548Z,59.80
2018-09-03T17:44:59.937Z,60.00
2018-09-03T17:47:28.213Z,60.30
2018-09-03T17:49:56.499Z,60.30
2018-09-03T17:52:24.800Z,61.10
2018-09-03T17:54:53.030Z,61.90
2018-09-03T17:57:21.288Z,63.50
2018-09-03T17:59:49.577Z,64.00
2018-09-03T18:02:17.940Z,64.20
2018-09-03T18:04:46.249Z,65.00
2018-09-03T18:07:14.496Z,65.50
2018-09-03T18:09:42.735Z,65.80
2018-09-03T18:12:11.212Z,65.90
2018-09-03T18:14:39.617Z,66.40
2018-09-03T18:17:07.696Z,67.10
2018-09-03T18:19:36.028Z,67.00
2018-09-03T18:22:11.091Z,67.20
2018-09-03T18:24:39.420Z,67.70
2018-09-03T18:27:08.152Z,68.00
2018-09-03T18:29:36.877Z,68.30
2018-09-03T18:32:05.483Z,68.70
2018-09-03T18:34:33.819Z,68.80
2018-09-03T18:37:02.088Z,69.10
2018-09-03T18:39:30.497Z,69.10
2018-09-03T18:41:59.413Z,69.00
2018-09-03T18:44:27.594Z,68.90
2018-09-03T18:46:55.870Z,68.80
2018-09-03T18:49:24.113Z,68.80
2018-09-03T18:51:52.538Z,69.00
2018-09-03T18:54:20.950Z,68.80
2018-09-03T18:56:49.252Z,68.70
2018-09-03T18:59:17.468Z,68.60
2018-09-03T19:01:45.670Z,68.90
2018-09-03T19:04:13.948Z,69.00
2018-09-03T19:06:42.227Z,69.20
2018-09-03T19:09:10.782Z,69.20
2018-09-03T19:11:39.155Z,69.30
2018-09-03T19:14:07.607Z,70.10
2018-09-03T19:16:35.986Z,69.20
2018-09-03T19:19:04.423Z,69.30
2018-09-03T19:21:32.669Z,69.40
2018-09-03T19:24:00.946Z,69.50
2018-09-03T19:26:29.135Z,69.50
2018-09-03T19:28:57.441Z,69.60
2018-09-03T19:31:25.700Z,69.40
2018-09-03T19:33:54.059Z,69.50
2018-09-03T19:36:22.371Z,69.70
2018-09-03T19:38:50.707Z,70.10
2018-09-03T19:41:18.965Z,69.80
2018-09-03T19:43:47.181Z,69.90
2018-09-03T19:46:16.296Z,70.00
2018-09-03T19:48:44.656Z,69.70
2018-09-03T19:51:12.774Z,69.60
2018-09-03T19:53:41.284Z,69.30
2018-09-03T19:56:09.486Z,69.80
2018-09-03T19:58:37.715Z,69.70
2018-09-03T20:01:06.025Z,69.70
2018-09-03T20:03:34.264Z,69.70
2018-09-03T20:06:02.653Z,68.50
2018-09-03T20:08:31.555Z,69.30
2018-09-03T20:10:59.737Z,68.90
2018-09-03T20:13:28.004Z,69.10
2018-09-03T20:15:56.270Z,69.20
2018-09-03T20:18:24.541Z,69.40
2018-09-03T20:20:52.881Z,69.40
2018-09-03T20:23:21.562Z,69.50
2018-09-03T20:25:49.873Z,69.80
2018-09-03T20:28:18.066Z,69.90
2018-09-03T20:30:46.457Z,69.60
2018-09-03T20:33:14.693Z,69.50
2018-09-03T20:35:42.932Z,69.60
2018-09-03T20:38:11.178Z,69.70
2018-09-03T20:40:39.813Z,69.80
2018-09-03T20:43:08.110Z,70.00
2018-09-03T20:45:36.366Z,69.80
2018-09-03T20:48:04.745Z,69.90
2018-09-03T20:50:32.995Z,69.40
2018-09-03T20:53:01.245Z,69.60
2018-09-03T20:55:29.564Z,69.70
2018-09-03T20:57:57.811Z,69.00
2018-09-03T21:00:26.117Z,68.70
2018-09-03T21:02:54.406Z,68.40
2018-09-03T21:05:22.661Z,68.40
2018-09-03T21:07:50.948Z,67.90
2018-09-03T21:10:19.229Z,68.50
2018-09-03T21:12:47.594Z,68.30
2018-09-03T21:15:15.824Z,68.30
2018-09-03T21:17:44.071Z,68.70
2018-09-03T21:20:12.298Z,68.70
2018-09-03T21:22:40.490Z,68.70
2018-09-03T21:25:08.755Z,68.70
2018-09-03T21:27:37.105Z,69.00
2018-09-03T21:30:06.673Z,69.00
2018-09-03T21:32:34.918Z,68.80
2018-09-03T21:35:03.376Z,68.80
2018-09-03T21:37:31.649Z,69.10
2018-09-03T21:39:59.973Z,69.30
2018-09-03T21:42:28.236Z,69.30
2018-09-03T21:44:56.473Z,69.70
2018-09-03T21:47:24.738Z,69.80
2018-09-03T21:49:53.012Z,70.00
2018-09-03T21:52:21.633Z,70.10
2018-09-03T21:54:49.945Z,70.10
2018-09-03T21:57:18.206Z,70.90
2018-09-03T21:59:46.437Z,70.80
2018-09-03T22:02:14.683Z,71.10
2018-09-03T22:04:43.066Z,70.80
2018-09-03T22:07:11.837Z,70.90
2018-09-03T22:09:40.387Z,70.90
2018-09-03T22:12:08.870Z,71.00
2018-09-03T22:14:37.159Z,71.40
2018-09-03T22:17:05.450Z,72.10
2018-09-03T22:19:33.689Z,71.50
2018-09-03T22:22:01.923Z,71.70
2018-09-03T22:24:30.145Z,71.60
2018-09-03T22:26:58.423Z,71.40
2018-09-03T22:29:26.751Z,71.40
2018-09-03T22:31:54.989Z,71.30
2018-09-03T22:34:23.335Z,71.50
2018-09-03T22:36:51.545Z,71.70
2018-09-03T22:39:19.797Z,71.70
2018-09-03T22:41:48.034Z,72.00
2018-09-03T22:44:16.252Z,72.10
2018-09-03T22:46:51.297Z,72.10
2018-09-03T22:49:19.512Z,72.60
2018-09-03T22:51:47.787Z,72.90
2018-09-03T22:54:16.017Z,73.30
2018-09-03T22:56:44.294Z,73.70
2018-09-03T22:59:12.562Z,73.90
2018-09-03T23:01:41.378Z,73.90
2018-09-03T23:04:09.618Z,74.70
2018-09-03T23:06:38.004Z,74.60
2018-09-03T23:09:06.998Z,75.20
2018-09-03T23:11:35.385Z,75.60
2018-09-03T23:14:03.653Z,75.60
2018-09-03T23:16:31.851Z,75.40
2018-09-03T23:19:00.103Z,75.50
2018-09-03T23:21:28.390Z,75.20
2018-09-03T23:23:56.675Z,75.10
2018-09-03T23:26:24.911Z,75.30
2018-09-03T23:28:53.129Z,75.50
2018-09-03T23:31:21.329Z,75.50
2018-09-03T23:33:49.566Z,76.40
2018-09-03T23:36:17.831Z,76.40
2018-09-03T23:38:46.078Z,76.30
2018-09-03T23:41:14.286Z,76.50
2018-09-03T23:43:42.570Z,76.40
2018-09-03T23:46:10.912Z,76.50
2018-09-03T23:48:39.173Z,76.10
2018-09-03T23:51:07.466Z,76.40
2018-09-03T23:53:35.712Z,76.30
2018-09-03T23:56:03.952Z,76.10
2018-09-03T23:58:32.226Z,76.30
